• Join FlightAware (Why Join?)
  • Login
  • US Flag 
12:57AM EDT


 

Airport Tracker/Info


-or-


 

Live Flight TrackerFlight Track Log ✈ EJM989 ✈ 28-Jun-2013 ✈ PANC - KBED

Flight Track Log - Related Links

Times and Time Zones

All times are in EDT time to prevent confusion due to time zone crossing. See the EJM989 flight status page for this flight to view local times or setup timezone preferences in your user account.

Time Position Orientation Groundspeed Altitude Reporting Facility
EDT Latitude Longitude Course Direction KTS MPH feet Rate Location/Type
11:52AM 61.3000 -149.9167 111° Southeast 260 299 9,000  Level Anchorage Center
11:53AM 61.2833 -149.7500 102° East 300 345 11,500 2,280 Climbing Anchorage Center
11:54AM 61.2667 -149.5500 100° East 350 403 13,600 2,460 Climbing Anchorage Center
11:55AM 60.8473 -148.3394 111° Southeast  Level FlightAware Approximate
11:55AM 61.2333 -149.3333 108° East 370 426 16,500  Level Anchorage Center
11:56AM 60.7876 -148.0719 116° Southeast  Level FlightAware Approximate
11:56AM 61.1833 -149.1833 125° Southeast 390 449 19,400  Level Anchorage Center
11:57AM 60.7325 -147.8009 111° Southeast  Level FlightAware Approximate
11:57AM 61.1500 -148.9833 109° East 380 437 21,600  Level Anchorage Center
11:58AM 61.0833 -148.7667 122° Southeast 410 472 24,100 2,400 Climbing Anchorage Center
11:59AM 61.0333 -148.5667 117° Southeast 410 472 26,400 2,100 Climbing Anchorage Center
12:01PM 60.9000 -148.0833 119° Southeast 430 495 30,600 1,860 Climbing Anchorage Center
12:02PM 60.8500 -147.8667 115° Southeast 440 506 32,100 1,380 Climbing Anchorage Center
12:03PM 60.8167 -147.6000 104° East 450 518 33,400 1,140 Climbing Anchorage Center
12:04PM 60.7833 -147.3667 106° East 430 495 34,400 1,140 Climbing Anchorage Center
12:05PM 60.7500 -147.1500 107° East 430 495 35,700 1,560 Climbing Anchorage Center
12:06PM 60.7167 -146.9167 106° East 420 483 37,600 1,860 Climbing Anchorage Center
12:07PM 60.6833 -146.6833 106° East 410 472 39,500 1,380 Climbing Anchorage Center
12:08PM 60.6500 -146.4667 107° East 410 472 40,400 720 Climbing Anchorage Center
12:09PM 60.6333 -146.2333 98° East 420 483 41,000 600 Climbing Anchorage Center
12:10PM 60.6000 -146.0000 106° East 430 495 41,700 720 Climbing Anchorage Center
12:11PM 60.5500 -145.7500 112° Southeast 440 506 42,500 900 Climbing Anchorage Center
12:12PM 60.5167 -145.5167 106° East 430 495 43,500 840 Climbing Anchorage Center
12:13PM 60.4833 -145.2833 106° East 440 506 44,200 540 Climbing Anchorage Center
12:14PM 60.4500 -145.0333 105° East 430 495 44,600 360 Climbing Anchorage Center
12:15PM 60.4167 -144.8000 106° East 440 506 45,000 180 Climbing Anchorage Center
12:16PM 60.3833 -144.5667 106° East 450 518 45,000  Level Anchorage Center
12:17PM 60.3333 -144.3167 112° Southeast 450 518 45,000  Level Anchorage Center
12:18PM 60.3000 -144.0667 105° East 470 541 45,000  Level Anchorage Center
12:19PM 60.2667 -143.8167 105° East 470 541 45,000  Level Anchorage Center
12:20PM 60.2167 -143.5500 111° Southeast 470 541 45,000  Level Anchorage Center
12:21PM 60.1667 -143.3000 112° Southeast 480 552 45,000  Level Anchorage Center
12:22PM 60.1333 -143.0333 104° East 480 552 45,000  Level Anchorage Center
12:23PM 60.0833 -142.7833 112° Southeast 470 541 45,000  Level Anchorage Center
12:24PM 60.0500 -142.5333 105° East 460 529 45,000  Level Anchorage Center
12:25PM 60.0000 -142.2833 112° Southeast 460 529 45,000  Level Anchorage Center
12:26PM 59.9667 -142.0500 106° East 470 541 45,000  Level Anchorage Center
12:27PM 59.9167 -141.8000 112° Southeast 470 541 45,000  Level Anchorage Center
12:28PM 59.8667 -141.5500 112° Southeast 470 541 45,000  Level Anchorage Center
12:29PM 59.8167 -141.3000 112° Southeast 470 541 45,000  Level Anchorage Center
12:30PM 59.7833 -141.0667 106° East 470 541 45,000  Level Anchorage Center
12:31PM 59.7333 -140.8167 112° Southeast 470 541 45,000  Level Anchorage Center
12:32PM 59.6833 -140.5667 112° Southeast 470 541 45,000  Level Anchorage Center
12:33PM 59.6333 -140.3333 113° Southeast 470 541 45,000  Level Anchorage Center
12:34PM 59.6000 -140.0833 105° East 470 541 45,000  Level Anchorage Center
12:35PM 59.5500 -139.8500 113° Southeast 460 529 45,000  Level Anchorage Center
12:36PM 59.5000 -139.6167 113° Southeast 490 564 45,000  Level Anchorage Center
12:37PM 59.4667 -139.3667 105° East 480 552 45,000  Level Anchorage Center
12:38PM 59.4333 -139.1167 105° East 470 541 45,000  Level Anchorage Center
12:39PM 59.4167 -138.8667 97° East 470 541 45,000  Level Anchorage Center
12:40PM 59.3833 -138.6000 104° East 470 541 45,000  Level Anchorage Center
12:41PM 59.3500 -138.3500 105° East 460 529 45,000  Level Anchorage Center
12:42PM 59.3167 -138.1000 105° East 470 541 45,000  Level Anchorage Center
12:43PM 59.2833 -137.8500 105° East 470 541 45,000  Level Anchorage Center
12:44PM 59.2667 -137.6000 97° East 470 541 45,000  Level Anchorage Center
12:45PM 59.2333 -137.3500 105° East 480 552 45,000  Level Anchorage Center
12:46PM 59.2000 -137.1000 104° East 470 541 45,000  Level Anchorage Center
12:47PM 59.1667 -136.8500 104° East 470 541 45,000  Level Anchorage Center
12:48PM 59.1333 -136.6000 104° East 480 552 45,000  Level Anchorage Center
12:49PM 59.0833 -136.3500 111° Southeast 480 552 45,000  Level Anchorage Center
12:50PM 59.0500 -136.1000 104° East 480 552 45,000  Level Anchorage Center
12:51PM 59.0167 -135.8500 104° East 480 552 45,000  Level Anchorage Center
12:52PM 58.9833 -135.6000 104° East 480 552 45,000  Level Anchorage Center
12:53PM 58.9500 -135.3667 105° East 470 541 45,000  Level Anchorage Center
12:54PM 58.9167 -135.1167 104° East 470 541 45,000  Level Anchorage Center
12:55PM 58.8667 -134.8167 108° East 480 552 45,000  Level Anchorage Center
12:56PM 58.8333 -134.6167 108° East 480 552 45,000  Level Anchorage Center
12:57PM 58.7833 -134.3167 108° East 480 552 45,000  Level Anchorage Center
12:59PM 58.7302 -133.9149 105° East  Level FlightAware Approximate
01:06PM 58.4418 -132.2177 108° East  Level FlightAware Approximate
01:07PM 58.3984 -131.9778 109° East  Level FlightAware Approximate
01:08PM 58.3546 -131.7384 109° East  Level FlightAware Approximate
01:09PM 58.3103 -131.4997 110° East  Level FlightAware Approximate
01:10PM 58.2783 -131.2545 104° East  Level FlightAware Approximate
01:11PM 58.2459 -131.0097 104° East  Level FlightAware Approximate
01:12PM 58.2130 -130.7653 104° East  Level FlightAware Approximate
01:13PM 58.1796 -130.5214 104° East  Level FlightAware Approximate
01:14PM 58.1457 -130.2780 105° East  Level FlightAware Approximate
01:15PM 58.1114 -130.0350 105° East  Level FlightAware Approximate
01:16PM 58.0766 -129.7925 105° East  Level FlightAware Approximate
01:17PM 58.0413 -129.5505 105° East  Level FlightAware Approximate
01:18PM 58.0056 -129.3090 105° East  Level FlightAware Approximate
01:19PM 57.9695 -129.0679 106° East  Level FlightAware Approximate
01:20PM 57.9328 -128.8273 106° East  Level FlightAware Approximate
01:21PM 57.8958 -128.5872 106° East  Level FlightAware Approximate
01:22PM 57.8583 -128.3477 106° East  Level FlightAware Approximate
01:23PM 57.8203 -128.1086 107° East  Level FlightAware Approximate
01:24PM 57.7819 -127.8700 107° East  Level FlightAware Approximate
01:25PM 57.7430 -127.6320 107° East  Level FlightAware Approximate
01:26PM 57.7037 -127.3944 107° East  Level FlightAware Approximate
01:27PM 57.6639 -127.1574 107° East  Level FlightAware Approximate
01:28PM 57.6237 -126.9209 108° East  Level FlightAware Approximate
01:29PM 57.5831 -126.6849 108° East  Level FlightAware Approximate
01:30PM 57.5420 -126.4494 108° East  Level FlightAware Approximate
01:31PM 57.4960 -126.2123 110° East  Level FlightAware Approximate
01:32PM 57.4496 -125.9809 110° East  Level FlightAware Approximate
01:33PM 57.4027 -125.7501 111° Southeast  Level FlightAware Approximate
01:33PM 57.1000 -125.9333 112° Southeast 500 575 45,000  Level Edmonton Center
01:34PM 57.3554 -125.5199 111° Southeast  Level FlightAware Approximate
01:34PM 57.0333 -125.7000 118° Southeast 490 564 45,000  Level Edmonton Center
01:35PM 57.3077 -125.2903 111° Southeast  Level FlightAware Approximate
01:35PM 56.9833 -125.4833 113° Southeast 490 564 45,000  Level Edmonton Center
01:36PM 57.2595 -125.0613 111° Southeast  Level FlightAware Approximate
01:36PM 56.9167 -125.2500 118° Southeast 490 564 45,000  Level Edmonton Center
01:37PM 57.2110 -124.8329 111° Southeast  Level FlightAware Approximate
01:37PM 56.8667 -125.0333 113° Southeast 490 564 45,000  Level Edmonton Center
01:38PM 57.1620 -124.6051 112° Southeast  Level FlightAware Approximate
01:38PM 56.8000 -124.8000 117° Southeast 490 564 45,000  Level Edmonton Center
01:39PM 56.7333 -124.5667 117° Southeast 490 564 45,000  Level Edmonton Center
01:40PM 56.6833 -124.3500 113° Southeast 490 564 45,000  Level Edmonton Center
01:41PM 56.6167 -124.1000 116° Southeast 490 564 45,000  Level Edmonton Center
01:42PM 56.5667 -123.8667 111° Southeast 490 564 45,000  Level Edmonton Center
01:43PM 56.5167 -123.6500 113° Southeast 490 564 45,000  Level Edmonton Center
01:44PM 56.4500 -123.4333 119° Southeast 490 564 45,000  Level Edmonton Center
01:45PM 56.3833 -123.2167 119° Southeast 490 564 45,000  Level Edmonton Center
01:46PM 56.3167 -122.9833 117° Southeast 490 564 45,000  Level Edmonton Center
01:47PM 56.2667 -122.7667 112° Southeast 490 564 45,000  Level Edmonton Center
01:48PM 56.2000 -122.5500 119° Southeast 490 564 45,000  Level Edmonton Center
01:49PM 56.1333 -122.3333 119° Southeast 490 564 45,000  Level Edmonton Center
01:50PM 56.0667 -122.1167 119° Southeast 490 564 45,000  Level Edmonton Center
01:51PM 56.0167 -121.9000 112° Southeast 490 564 45,000  Level Edmonton Center
01:52PM 55.9500 -121.6667 117° Southeast 490 564 45,000  Level Edmonton Center
01:56PM 55.6833 -120.8333 119° Southeast 490 564 45,000  Level Edmonton Center
01:57PM 55.6333 -120.6000 111° Southeast 480 552 45,000  Level Edmonton Center
01:58PM 55.5667 -120.4167 123° Southeast 480 552 45,000  Level Edmonton Center
01:59PM 55.5000 -120.1667 115° Southeast 490 564 45,000  Level Edmonton Center
02:01PM 55.3667 -119.7500 119° Southeast 500 575 45,000  Level Edmonton Center
02:02PM 55.3000 -119.5500 120° Southeast 490 564 45,000  Level Edmonton Center
02:03PM 55.2333 -119.3333 118° Southeast 500 575 45,000  Level Edmonton Center
02:04PM 55.1500 -119.1000 122° Southeast 500 575 45,000  Level Edmonton Center
02:05PM 55.0833 -118.9000 120° Southeast 490 564 45,000  Level Edmonton Center
02:06PM 55.0167 -118.6833 118° Southeast 500 575 45,000  Level Edmonton Center
02:07PM 54.9333 -118.4833 126° Southeast 500 575 45,000  Level Edmonton Center
02:08PM 54.8667 -118.2667 118° Southeast 500 575 45,000  Level Edmonton Center
02:09PM 54.7833 -118.0667 126° Southeast 500 575 45,000  Level Edmonton Center
02:10PM 54.7333 -117.8667 113° Southeast 500 575 45,000  Level Edmonton Center
02:11PM 54.6333 -117.6500 129° Southeast 500 575 45,000  Level Edmonton Center
02:12PM 54.5667 -117.4667 122° Southeast 510 587 45,000  Level Edmonton Center
02:13PM 54.4833 -117.2333 122° Southeast 510 587 45,000  Level Edmonton Center
02:14PM 54.4000 -117.0333 126° Southeast 510 587 45,000  Level Edmonton Center
02:15PM 54.3167 -116.8167 123° Southeast 510 587 45,000  Level Edmonton Center
02:16PM 54.2500 -116.6333 122° Southeast 510 587 45,000  Level Edmonton Center
02:17PM 54.1833 -116.4000 116° Southeast 510 587 45,000  Level Edmonton Center
02:18PM 54.1000 -116.2000 125° Southeast 510 587 45,000  Level Edmonton Center
02:19PM 54.0167 -116.0000 125° Southeast 510 587 45,000  Level Edmonton Center
02:20PM 53.9500 -115.8167 122° Southeast 500 575 45,000  Level Edmonton Center
02:21PM 53.8667 -115.6167 125° Southeast 500 575 45,000  Level Edmonton Center
02:22PM 53.7667 -115.4167 130° Southeast 500 575 45,000  Level Edmonton Center
02:23PM 53.7000 -115.2000 117° Southeast 500 575 45,000  Level Edmonton Center
02:24PM 53.6167 -115.0000 125° Southeast 510 587 45,000  Level Edmonton Center
02:25PM 53.5333 -114.8167 127° Southeast 510 587 45,000  Level Edmonton Center
02:26PM 53.4500 -114.6167 125° Southeast 510 587 45,000  Level Edmonton Center
02:27PM 53.3667 -114.4000 123° Southeast 510 587 45,000  Level Edmonton Center
02:28PM 53.3000 -114.2167 121° Southeast 510 587 45,000  Level Edmonton Center
02:29PM 53.2167 -114.0167 125° Southeast 510 587 45,000  Level Edmonton Center
02:30PM 53.1500 -113.8000 117° Southeast 510 587 45,000  Level Edmonton Center
02:31PM 53.1333 -113.5833 97° East 520 598 45,000  Level Edmonton Center
02:32PM 53.1000 -113.3167 102° East 520 598 45,000  Level Edmonton Center
02:33PM 53.0833 -113.0833 97° East 520 598 45,000  Level Edmonton Center
02:34PM 53.0500 -112.8500 103° East 520 598 45,000  Level Edmonton Center
02:35PM 53.0167 -112.6167 103° East 520 598 45,000  Level Edmonton Center
02:36PM 52.9833 -112.3667 102° East 520 598 45,000  Level Edmonton Center
02:37PM 52.9500 -112.1333 103° East 520 598 45,000  Level Edmonton Center
02:38PM 52.9167 -111.9000 103° East 520 598 45,000  Level Edmonton Center
02:39PM 52.9000 -111.6667 97° East 520 598 45,000  Level Edmonton Center
02:40PM 52.8667 -111.4167 102° East 520 598 45,000  Level Edmonton Center
02:41PM 52.8333 -111.1833 103° East 520 598 45,000  Level Edmonton Center
02:42PM 52.8000 -110.9333 102° East 520 598 45,000  Level Edmonton Center
02:43PM 52.7667 -110.7000 103° East 520 598 45,000  Level Edmonton Center
02:44PM 52.7500 -110.4667 97° East 530 610 45,000  Level Edmonton Center
02:45PM 52.7000 -110.2167 108° East 520 598 45,000  Level Edmonton Center
02:46PM 52.6833 -109.9833 97° East 520 598 45,000  Level Edmonton Center
02:47PM 52.6500 -109.7333 102° East 530 610 45,000  Level Winnipeg Center
02:48PM 52.6000 -109.5000 109° East 530 610 45,000  Level Winnipeg Center
02:49PM 52.5667 -109.2667 103° East 530 610 45,000  Level Winnipeg Center
02:50PM 52.5333 -109.0333 103° East 530 610 45,000  Level Winnipeg Center
02:51PM 52.5000 -108.7667 102° East 530 610 45,000  Level Winnipeg Center
02:52PM 52.4500 -108.5667 112° Southeast 530 610 45,000  Level Winnipeg Center
02:53PM 52.4167 -108.3000 101° East 530 610 45,000  Level Winnipeg Center
02:54PM 52.3833 -108.0833 104° East 530 610 45,000  Level Winnipeg Center
02:55PM 52.3500 -107.8500 103° East 540 621 45,000  Level Winnipeg Center
02:56PM 52.3167 -107.6167 103° East 530 610 45,000  Level Winnipeg Center
02:57PM 52.2833 -107.3833 103° East 530 610 45,000  Level Winnipeg Center
02:58PM 52.2333 -107.1500 109° East 520 598 45,000  Level Winnipeg Center
02:59PM 52.2000 -106.9333 104° East 520 598 45,000  Level Winnipeg Center
03:00PM 52.1500 -106.7000 109° East 520 598 45,000  Level Winnipeg Center
03:01PM 52.1000 -106.4667 109° East 540 621 45,000  Level Winnipeg Center
03:02PM 52.0667 -106.2333 103° East 520 598 45,000  Level Winnipeg Center
03:03PM 52.0333 -106.0167 104° East 520 598 45,000  Level Winnipeg Center
03:04PM 51.9833 -105.7833 109° East 520 598 45,000  Level Winnipeg Center
03:05PM 51.9167 -105.5833 118° Southeast 520 598 45,000  Level Winnipeg Center
03:06PM 51.8833 -105.3333 102° East 520 598 45,000  Level Winnipeg Center
03:07PM 51.8333 -105.1333 112° Southeast 520 598 45,000  Level Winnipeg Center
03:08PM 51.7833 -104.9000 109° East 520 598 45,000  Level Winnipeg Center
03:09PM 51.7500 -104.6833 104° East 520 598 45,000  Level Winnipeg Center
03:10PM 51.7000 -104.4833 112° Southeast 520 598 45,000  Level Winnipeg Center
03:11PM 51.6500 -104.2333 108° East 520 598 45,000  Level Winnipeg Center
03:12PM 51.6000 -104.0333 112° Southeast 520 598 45,000  Level Winnipeg Center
03:13PM 51.5500 -103.7833 108° East 520 598 45,000  Level Winnipeg Center
03:14PM 51.5000 -103.5833 112° Southeast 520 598 45,000  Level Winnipeg Center
03:15PM 51.4667 -103.3667 104° East 520 598 45,000  Level Winnipeg Center
03:16PM 51.4000 -103.1500 116° Southeast 520 598 45,000  Level Winnipeg Center
03:17PM 51.3500 -102.9167 109° East 520 598 45,000  Level Winnipeg Center
03:18PM 51.3000 -102.7000 110° East 520 598 45,000  Level Winnipeg Center
03:19PM 51.2500 -102.5000 112° Southeast 520 598 45,000  Level Winnipeg Center
03:20PM 51.2000 -102.2500 108° East 520 598 45,000  Level Winnipeg Center
03:21PM 51.1500 -102.0333 110° East 520 598 45,000  Level Winnipeg Center
03:22PM 51.1167 -101.8500 106° East 530 610 45,000  Level Winnipeg Center
03:23PM 51.0667 -101.6000 108° East 530 610 45,000  Level Winnipeg Center
03:24PM 51.0167 -101.3833 110° East 520 598 45,000  Level Winnipeg Center
03:26PM 50.9333 -100.9833 108° East 520 598 45,000  Level Edmonton Center
03:27PM 50.8667 -100.7333 113° Southeast 530 610 45,000  Level Winnipeg Center
03:28PM 50.8333 -100.5167 104° East 530 610 45,000  Level Winnipeg Center
03:29PM 50.7667 -100.3000 116° Southeast 530 610 45,000  Level Winnipeg Center
03:30PM 50.7167 -100.0833 110° East 530 610 45,000  Level Winnipeg Center
03:31PM 50.6833 -99.8667 104° East 520 598 45,000  Level Winnipeg Center
03:32PM 50.6333 -99.6333 109° East 520 598 45,000  Level Winnipeg Center
03:33PM 50.5833 -99.4167 110° East 520 598 45,000  Level Winnipeg Center
03:34PM 50.5667 -99.2000 97° East 520 598 45,000  Level Winnipeg Center
03:35PM 50.5167 -99.0000 111° Southeast 520 598 45,000  Level Winnipeg Center
03:36PM 50.4667 -98.7833 110° East 510 587 45,000  Level Winnipeg Center
03:37PM 50.4167 -98.5667 110° East 520 598 45,000  Level Winnipeg Center
03:38PM 50.3833 -98.3500 103° East 520 598 45,000  Level Winnipeg Center
03:39PM 50.3500 -98.1167 103° East 510 587 45,000  Level Winnipeg Center
03:40PM 50.3000 -97.9167 111° Southeast 510 587 45,000  Level Winnipeg Center
03:41PM 50.2500 -97.7000 110° East 510 587 45,000  Level Winnipeg Center
03:42PM 50.2167 -97.4833 103° East 520 598 45,000  Level Winnipeg Center
03:43PM 50.1667 -97.2500 108° East 520 598 45,000  Level Winnipeg Center
03:44PM 50.1167 -97.0667 113° Southeast 520 598 45,000  Level Winnipeg Center
03:45PM 50.0667 -96.8667 111° Southeast 520 598 45,000  Level Winnipeg Center
03:46PM 50.0167 -96.6333 108° East 520 598 45,000  Level Winnipeg Center
03:47PM 49.9833 -96.4167 103° East 510 587 45,000  Level Winnipeg Center
03:48PM 49.9333 -96.2167 111° Southeast 510 587 45,000  Level Winnipeg Center
03:49PM 49.8667 -96.0000 115° Southeast 510 587 45,000  Level Winnipeg Center
03:50PM 49.8167 -95.8000 111° Southeast 510 587 45,000  Level Winnipeg Center
03:51PM 49.7833 -95.6000 104° East 510 587 45,000  Level Winnipeg Center
03:52PM 49.7333 -95.3833 110° East 510 587 45,000  Level Winnipeg Center
03:53PM 49.6833 -95.1833 111° Southeast 520 598 45,000  Level Winnipeg Center
03:54PM 49.6333 -94.9500 108° East 520 598 45,000  Level Winnipeg Center
03:55PM 49.5833 -94.7500 111° Southeast 520 598 45,000  Level Winnipeg Center
03:56PM 49.5333 -94.5667 113° Southeast 520 598 45,000  Level Winnipeg Center
03:57PM 49.4833 -94.3333 108° East 510 587 45,000  Level Winnipeg Center
03:58PM 49.4333 -94.1333 111° Southeast 510 587 45,000  Level Winnipeg Center
03:59PM 49.3833 -93.9333 111° Southeast 510 587 45,000  Level Winnipeg Center
04:00PM 49.3333 -93.7333 111° Southeast 510 587 45,000  Level Winnipeg Center
04:01PM 49.2667 -93.5333 117° Southeast 510 587 45,000  Level Winnipeg Center
04:02PM 49.2167 -93.3333 111° Southeast 510 587 45,000  Level Winnipeg Center
04:03PM 49.1833 -93.1000 102° East 510 587 45,000  Level Winnipeg Center
04:04PM 49.1167 -92.9333 121° Southeast 520 598 45,000  Level Winnipeg Center
04:05PM 49.0667 -92.7000 108° East 510 587 45,000  Level Winnipeg Center
04:06PM 49.0000 -92.5000 117° Southeast 510 587 45,000  Level Winnipeg Center
04:07PM 48.9667 -92.3000 104° East 510 587 45,000  Level Winnipeg Center
04:08PM 48.9000 -92.1000 117° Southeast 510 587 45,000  Level Winnipeg Center
04:09PM 48.8500 -91.9000 111° Southeast 510 587 45,000  Level Winnipeg Center
04:10PM 48.8000 -91.7167 112° Southeast 510 587 45,000  Level Winnipeg Center
04:11PM 48.7500 -91.5167 111° Southeast 510 587 45,000  Level Winnipeg Center
04:12PM 48.6833 -91.3167 117° Southeast 510 587 45,000  Level Winnipeg Center
04:13PM 48.6333 -91.1167 111° Southeast 510 587 45,000  Level Winnipeg Center
04:14PM 48.5833 -90.9167 111° Southeast 500 575 45,000  Level Winnipeg Center
04:15PM 48.5167 -90.7333 119° Southeast 500 575 45,000  Level Winnipeg Center
04:16PM 48.4500 -90.5667 121° Southeast 500 575 45,000  Level Winnipeg Center
04:17PM 48.4167 -90.3333 102° East 500 575 45,000  Level Winnipeg Center
04:18PM 48.3500 -90.1667 121° Southeast 490 564 45,000  Level Winnipeg Center
04:19PM 48.2833 -89.9833 119° Southeast 490 564 45,000  Level Winnipeg Center
04:20PM 48.2333 -89.7833 111° Southeast 490 564 45,000  Level Winnipeg Center
04:21PM 48.1833 -89.5833 110° East 490 564 45,000  Level Winnipeg Center
04:22PM 48.1333 -89.4167 114° Southeast 490 564 45,000  Level Winnipeg Center
04:23PM 48.0667 -89.2333 119° Southeast 490 564 45,000  Level Winnipeg Center
04:24PM 48.0000 -89.0333 116° Southeast 490 564 45,000  Level Winnipeg Center
04:25PM 47.9500 -88.8500 112° Southeast 500 575 45,000  Level Winnipeg Center
04:26PM 47.9000 -88.6500 110° East 500 575 45,000  Level Winnipeg Center
04:27PM 47.8333 -88.4667 118° Southeast 500 575 45,000  Level Winnipeg Center
04:28PM 47.7833 -88.3000 114° Southeast 500 575 45,000  Level Winnipeg Center
04:29PM 47.7167 -88.1167 118° Southeast 500 575 45,000  Level Winnipeg Center
04:30PM 47.6500 -87.9333 118° Southeast 500 575 45,000  Level Winnipeg Center
04:31PM 47.6000 -87.7333 110° East 500 575 45,000  Level Winnipeg Center
04:32PM 47.5333 -87.5500 118° Southeast 500 575 45,000  Level Winnipeg Center
04:33PM 47.4667 -87.3667 118° Southeast 500 575 45,000  Level Winnipeg Center
04:34PM 47.4000 -87.1833 118° Southeast 500 575 45,000  Level Winnipeg Center
04:35PM 47.3500 -86.9833 110° East 500 575 45,000  Level Winnipeg Center
04:36PM 47.2833 -86.8000 118° Southeast 500 575 45,000  Level Winnipeg Center
04:37PM 47.2333 -86.6167 112° Southeast 500 575 45,000  Level Winnipeg Center
04:38PM 47.1833 -86.5000 122° Southeast 500 575 45,000  Level Toronto Center
04:39PM 47.1333 -86.3000 110° East 500 575 45,000  Level Toronto Center
04:40PM 47.0833 -86.1167 112° Southeast 500 575 45,000  Level Toronto Center
04:41PM 47.0333 -85.9500 114° Southeast 500 575 45,000  Level Toronto Center
04:42PM 46.9667 -85.7500 116° Southeast 500 575 45,000  Level Toronto Center
04:43PM 46.9333 -85.5667 105° East 500 575 45,000  Level Toronto Center
04:44PM 46.8833 -85.3667 110° East 500 575 45,000  Level Toronto Center
04:45PM 46.8167 -85.1833 118° Southeast 500 575 45,000  Level Toronto Center
04:46PM 46.7500 -84.9167 110° East 500 575 45,000  Level Winnipeg Center
04:47PM 46.7000 -84.7667 116° Southeast 500 575 45,000  Level Winnipeg Center
04:48PM 46.6667 -84.6167 108° East 500 575 45,000  Level Toronto Center
04:49PM 46.6000 -84.4167 116° Southeast 500 575 45,000  Level Toronto Center
04:50PM 46.5333 -84.2333 118° Southeast 500 575 45,000  Level Toronto Center
04:51PM 46.5000 -84.0333 104° East 500 575 45,000  Level Toronto Center
04:52PM 46.4333 -83.8667 120° Southeast 500 575 45,000  Level Toronto Center
04:53PM 46.3833 -83.7000 113° Southeast 500 575 45,000  Level Toronto Center
04:54PM 46.3167 -83.5000 116° Southeast 500 575 45,000  Level Toronto Center
04:55PM 46.2667 -83.3167 111° Southeast 500 575 45,000  Level Toronto Center
04:56PM 46.2167 -83.1333 111° Southeast 500 575 45,000  Level Toronto Center
04:57PM 46.1500 -82.9500 118° Southeast 500 575 45,000  Level Toronto Center
04:58PM 46.0833 -82.7500 116° Southeast 500 575 45,000  Level Toronto Center
04:59PM 46.0500 -82.5833 106° East 490 564 45,000  Level Toronto Center
05:00PM 45.9833 -82.4167 120° Southeast 490 564 45,000  Level Toronto Center
05:01PM 45.9333 -82.2500 113° Southeast 500 575 45,000  Level Toronto Center
05:02PM 45.8667 -82.0500 116° Southeast 490 564 45,000  Level Toronto Center
05:03PM 45.8167 -81.8833 113° Southeast 490 564 45,000  Level Toronto Center
05:04PM 45.7500 -81.6833 115° Southeast 490 564 45,000  Level Toronto Center
05:05PM 45.7000 -81.5167 113° Southeast 490 564 45,000  Level Toronto Center
05:06PM 45.6333 -81.3500 120° Southeast 500 575 45,000  Level Toronto Center
05:07PM 45.5667 -81.1500 115° Southeast 490 564 45,000  Level Toronto Center
05:08PM 45.5167 -80.9833 113° Southeast 490 564 45,000  Level Toronto Center
05:09PM 45.4667 -80.8167 113° Southeast 490 564 45,000  Level Toronto Center
05:10PM 45.4000 -80.6500 120° Southeast 490 564 45,000  Level Toronto Center
05:11PM 45.3500 -80.4667 111° Southeast 490 564 45,000  Level Toronto Center
05:12PM 45.2833 -80.3000 120° Southeast 490 564 45,000  Level Toronto Center
05:13PM 45.2167 -80.1000 115° Southeast 490 564 45,000  Level Toronto Center
05:14PM 45.1667 -79.9333 113° Southeast 490 564 45,000  Level Toronto Center
05:15PM 45.1000 -79.7667 119° Southeast 480 552 45,000  Level Toronto Center
05:16PM 45.0333 -79.6167 122° Southeast 490 564 45,000  Level Toronto Center
05:17PM 44.9833 -79.4500 113° Southeast 490 564 45,000  Level Toronto Center
05:18PM 44.9167 -79.2500 115° Southeast 490 564 45,000  Level Toronto Center
05:19PM 44.8667 -79.0833 113° Southeast 490 564 45,000  Level Toronto Center
05:20PM 44.8000 -78.9000 117° Southeast 490 564 45,000  Level Toronto Center
05:21PM 44.7333 -78.7333 119° Southeast 490 564 45,000  Level Toronto Center
05:22PM 44.6667 -78.5833 122° Southeast 480 552 45,000  Level Toronto Center
05:23PM 44.6000 -78.4167 119° Southeast 480 552 45,000  Level Toronto Center
05:24PM 44.5333 -78.2500 119° Southeast 480 552 45,000  Level Toronto Center
05:25PM 44.4833 -78.0667 111° Southeast 480 552 45,000  Level Toronto Center
05:26PM 44.4167 -77.9000 119° Southeast 480 552 45,000  Level Toronto Center
05:27PM 44.3500 -77.7500 122° Southeast 480 552 45,000  Level Toronto Center
05:28PM 44.3000 -77.5833 113° Southeast 480 552 45,000  Level Toronto Center
05:29PM 44.2333 -77.4000 117° Southeast 480 552 45,000  Level Toronto Center
05:30PM 44.1667 -77.2667 125° Southeast 480 552 45,000  Level Toronto Center
05:31PM 44.1000 -77.0833 117° Southeast 480 552 45,000  Level Toronto Center
05:32PM 44.0333 -76.9167 119° Southeast 480 552 45,000  Level Toronto Center
05:33PM 43.9833 -76.7667 115° Southeast 480 552 45,000  Level Toronto Center
05:34PM 43.9167 -76.6000 119° Southeast 480 552 45,000  Level Toronto Center
05:34PM 43.8903 -76.5344 119° Southeast 480 552 45,000  Level Boston Center
05:35PM 43.8272 -76.3717 118° Southeast 480 552 45,000  Level Boston Center
05:36PM 43.7617 -76.2092 119° Southeast 480 552 45,000  Level Boston Center
05:37PM 43.6961 -76.0500 120° Southeast 475 547 45,000 -60 Level Boston Center
05:38PM 43.6086 -75.9128 131° Southeast 475 547 44,900 -600 Descending Boston Center
05:39PM 43.5144 -75.7844 135° Southeast 475 547 43,900 -1,020 Descending Boston Center
05:40PM 43.4203 -75.6533 135° Southeast 475 547 42,900 -1,080 Descending Boston Center
05:41PM 43.3236 -75.5225 135° Southeast 480 552 41,800 -1,680 Descending Boston Center
05:42PM 43.2031 -75.4339 152° Southeast 487 560 39,600 -2,400 Descending Boston Center
05:43PM 43.0844 -75.3456 151° Southeast 487 560 37,000 -2,520 Descending Boston Center
05:44PM 42.9847 -75.2444 143° Southeast 487 560 34,600 -2,460 Descending Boston Center
05:45PM 42.9031 -75.0903 126° Southeast 487 560 32,100 -2,460 Descending Boston Center
05:46PM 42.8636 -74.8961 105° East 498 573 29,700 -1,560 Descending Boston Center
05:47PM 42.8450 -74.6942 97° East 505 581 29,000 -360 Descending Boston Center
05:48PM 42.7919 -74.5142 112° Southeast 511 588 29,000 -60 Level Boston Center
05:49PM 42.7264 -74.3394 117° Southeast 511 588 28,900 -720 Descending Boston Center
05:50PM 42.6603 -74.1681 118° Southeast 511 588 27,600 -1,020 Descending Boston Center
05:51PM 42.5939 -73.9942 117° Southeast 511 588 26,900 -1,200 Descending Boston Center
05:52PM 42.5839 -73.8050 94° East 494 568 25,200 -1,500 Descending Boston Center
05:53PM 42.5797 -73.6158 92° East 499 574 24,000 -600 Descending Boston Center
05:54PM 42.5794 -73.4269 90° East 499 574 24,000  Level Boston Center
05:55PM 42.6164 -73.2386 75° East 493 567 24,000  Level Boston Center
05:56PM 42.6489 -73.0497 77° East 500 575 24,000 -180 Level Boston Center
05:57PM 42.6811 -72.8553 77° East 517 595 23,700 -3,540 Descending Boston Center
05:58PM 42.7192 -72.6606 75° East 501 577 17,000 -2,100 Descending Boston Center
05:59PM 42.7381 -72.4881 81° East 466 536 19,600 960 Climbing Boston Center
06:00PM 42.7339 -72.3328 92° East 433 498 19,000 -1,380 Descending Boston Center
06:01PM 42.6836 -72.2142 120° Southeast 358 412 16,900 -2,700 Descending Boston Center
06:02PM 42.6292 -72.1183 128° Southeast 358 412 13,700 -2,880 Descending Boston Center
06:03PM 42.5911 -71.9861 111° Southeast 345 397 11,200 -2,280 Descending Boston Center
06:04PM 42.5636 -71.8875 111° Southeast 333 383 9,200 -2,280 Descending Boston Center
06:05PM 42.5317 -71.7611 109° East 322 371 6,700 -1,980 Descending Boston Center
06:06PM 42.5186 -71.6597 100° East 311 358 5,300 -1,500 Descending Boston Center
06:07PM 42.5075 -71.5500 98° East 283 326 3,800 -1,320 Descending Boston Center
06:09PM 42.5000 -71.4500 96° East 176 203 2,200 -840 Descending KA90
06:10PM 42.4833 -71.3833 109° East 171 197 1,900 -660 Descending KA90
06:11PM 42.4833 -71.3333 90° East 173 199 1,000 1,500 Descending KA90
06:12PM 42.4586 -71.2442 111° Southeast 158 182 6,000 1,800 Climbing Boston Center
06:13PM 42.4478 -71.1881 105° East 158 182 6,000  Level Boston Center
06:14PM 42.4367 -71.1319 105° East 158 182 6,000  Level Boston Center
06:15PM 42.4278 -71.0872 105° East 158 182 6,000  Level Boston Center
06:18PM 42.4278 -71.0872 216° Southwest 158 182 6,000  Level Boston Center
06:20PM 42.4699 -71.2890 286° West  Level Estimated